Home   Weather   Denver   Past weeks
Flag for USA

Past Weather in Denver, Tennessee, USA — Yesterday and Last 2 Weeks

Currently: 57 °F. Clear. (Weather station: Outlaw Field, USA). See more current weather

Past Weather in Denver — Graph

°F

Denver Temperature Yesterday

Maximum temperature yesterday: 74 °F (at 1:52 pm)
Minimum temperature yesterday: 46 °F (at 6:52 am)
Average temperature yesterday: 56 °F

High & Low Weather Summary for the Past Weeks

 TemperatureHumidityPressure
High87 °F (Sep 13, 2:52 pm)97% (Sep 10, 5:54 am)30.23 "Hg (Sep 10, 5:54 am)
Low46 °F (Sep 24, 6:52 am)38% (Sep 23, 12:52 pm)29.91 "Hg (Sep 15, 4:52 pm)
Average69 °F83%30.06 "Hg
* Reported Sep 10 12:52 am — Sep 25 12:52 am, Denver. Weather by CustomWeather, © 2021

Note: Actual official high and low records may vary slightly from our data, if they occured in-between our weather recording intervals... More about our weather records

Denver Weather History for the Previous 24 Hours

Scroll right to see more
 ConditionsComfort  
Time TempWeatherWind HumidityBarometerVisibility
12:52 am
Sat, Sep 25
58 °FClear.No wind87%30.05 "Hg10 mi
11:52 pm
Fri, Sep 24
59 °FClear.No wind87%30.05 "Hg9 mi
10:52 pm58 °FClear.No wind90%30.06 "Hg9 mi
9:52 pm57 °FClear.No wind90%30.06 "Hg10 mi
8:52 pm61 °FClear.No wind81%30.06 "Hg9 mi
7:52 pm64 °FClear.No wind70%30.06 "Hg10 mi
6:52 pm67 °FClear.3 mph61%30.06 "Hg10 mi
5:52 pm71 °FClear.5 mph53%30.06 "Hg10 mi
4:52 pm72 °FSunny.5 mph46%30.06 "Hg10 mi
3:52 pm74 °FSunny.7 mph43%30.06 "Hg10 mi
2:52 pm74 °FSunny.6 mph41%30.08 "Hg10 mi
1:52 pm74 °FSunny.8 mph41%30.09 "Hg10 mi
12:52 pm72 °FSunny.No wind41%30.12 "Hg10 mi
11:52 am71 °FSunny.6 mph44%30.14 "Hg10 mi
10:52 am69 °FSunny.7 mph49%30.16 "Hg10 mi
9:52 am66 °FSunny.3 mph63%30.16 "Hg10 mi
8:52 am56 °FSunny.No wind87%30.16 "Hg10 mi
7:52 am51 °FFog.No wind92%30.15 "Hg6 mi
7:19 am48 °FFog.No wind96%30.14 "Hg3 mi
7:15 am47 °FFog.No wind97%30.15 "Hg1 mi
6:52 am46 °FFog.No wind93%30.14 "Hg0 mi
6:37 am47 °FFog.No wind93%30.14 "Hg1 mi
6:17 am48 °FFog.No wind93%30.14 "Hg1 mi
6:05 am47 °FFog.No wind97%30.13 "Hg1 mi
5:52 am47 °FFog.No wind97%30.12 "Hg0 mi
5:12 am47 °FFog.No wind93%30.12 "Hg1 mi
4:52 am48 °FFog.No wind93%30.11 "Hg1 mi
4:22 am47 °FFog.No wind97%30.11 "Hg1 mi
3:52 am48 °FFog.No wind96%30.09 "Hg0 mi
2:52 am49 °FFog.No wind93%30.09 "Hg0 mi
2:32 am49 °FFog.No wind97%30.10 "Hg2 mi
2:13 am50 °FFog.No wind93%30.09 "Hg4 mi
2:05 am50 °FFog.No wind93%30.09 "Hg2 mi
Weather by CustomWeather, © 2021

See weather overview